Terminal Aerodrome Forecast
Issued by NWS

Home | Current Version | Previous Version | Text Only | Print | Product List | Glossary Off
Versions: 1 2 3 4 5 6 7 8 9 10 11 12 13

022
FTUS42 KMHX 080537
TAFISO
TAF
KISO 080537Z 0806/0906 00000KT P6SM SCT030 OVC050
      TEMPO 0806/0809 5SM BR BKN025
     FM080900 VRB02KT P6SM BKN020
     FM081400 28008KT P6SM OVC020
     FM081900 31010G15KT P6SM BKN040
     FM082300 32007KT P6SM SCT200
      AMD LTD TO VIS AND WIND=

USA.gov is the U.S. government's official web portal to all federal, state and local government web resources and services.